Time;durP1;ratioP1;P1;durP2;ratioP2;P2;SDS_P1;SDS_P2;PMS_P1;PMS_P2;Temp;Humidity;BMP_temperature;BMP_pressure;BME280_temperature;BME280_humidity;BME280_pressure;Samples;Min_cycle;Max_cycle;Signal;HPM_P1;HPM_P2
2021/11/12 00:14:55;;;;;;;1.80;0.90;;;;;;;-1.92;79.16;96475.38;1826161;78;21093;-69
2021/11/12 00:17:27;;;;;;;2.20;1.20;;;;;;;-1.99;79.03;96465.16;1825792;78;21511;-70
2021/11/12 00:19:56;;;;;;;1.70;1.30;;;;;;;-1.97;79.04;96468.33;1826428;78;21459;-70
2021/11/12 00:22:23;;;;;;;1.87;0.90;;;;;;;-2.09;78.68;96474.63;1826256;78;21006;-70
2021/11/12 00:24:53;;;;;;;3.77;1.80;;;;;;;-2.15;78.93;96476.96;1826077;78;21499;-69
2021/11/12 00:27:24;;;;;;;1.97;1.50;;;;;;;-2.14;79.35;96467.08;1826275;78;20966;-70
2021/11/12 00:35:17;;;;;;;1.43;0.90;;;;;;;-2.17;79.34;96462.66;1825888;78;21017;-69
2021/11/12 00:37:52;;;;;;;1.03;0.83;;;;;;;-2.16;79.31;96462.28;1825126;78;21045;-69
2021/11/12 00:40:20;;;;;;;1.33;0.90;;;;;;;-2.19;79.00;96456.16;1823899;78;21006;-69
2021/11/12 00:43:35;;;;;;;2.67;1.23;;;;;;;-2.29;78.88;96468.61;1826042;78;21082;-69
2021/11/12 00:45:19;;;;;;;1.03;0.70;;;;;;;-2.36;79.09;96463.56;1805583;78;21081;-69
2021/11/12 00:47:54;;;;;;;2.40;1.10;;;;;;;-2.36;79.10;96460.98;1824989;78;21046;-69
2021/11/12 00:55:24;;;;;;;2.37;1.20;;;;;;;-2.35;79.94;96462.73;1826150;78;20963;-69
2021/11/12 00:57:53;;;;;;;4.43;2.70;;;;;;;-2.26;79.89;96459.28;1826181;78;21063;-69
2021/11/12 01:00:22;;;;;;;2.60;1.37;;;;;;;-2.22;79.54;96458.61;1826059;78;21006;-69
2021/11/12 01:02:49;;;;;;;1.87;0.90;;;;;;;-2.17;79.40;96461.38;1826161;78;21022;-69
2021/11/12 01:05:16;;;;;;;2.60;1.17;;;;;;;-2.17;79.32;96449.73;1826454;78;21432;-69
2021/11/12 01:07:43;;;;;;;6.67;2.93;;;;;;;-2.14;79.18;96452.86;1826045;78;21002;-69
2021/11/12 01:10:14;;;;;;;4.37;2.10;;;;;;;-2.22;78.66;96451.23;1825804;78;21007;-69
2021/11/12 01:12:42;;;;;;;2.10;1.10;;;;;;;-2.35;78.79;96449.81;1826192;78;20963;-69
2021/11/12 01:15:15;;;;;;;1.47;1.03;;;;;;;-2.36;78.92;96446.77;1826043;78;21018;-69
2021/11/12 01:17:44;;;;;;;1.67;1.20;;;;;;;-2.30;79.40;96444.44;1826208;78;21010;-70
2021/11/12 01:20:15;;;;;;;1.37;0.90;;;;;;;-2.21;79.11;96450.44;1826298;78;20978;-69
2021/11/12 01:22:43;;;;;;;1.63;0.93;;;;;;;-2.23;78.79;96445.19;1826147;78;21018;-69
2021/11/12 01:25:14;;;;;;;2.00;1.10;;;;;;;-2.23;78.65;96442.60;1826270;78;20990;-69
2021/11/12 01:27:41;;;;;;;0.97;0.60;;;;;;;-2.23;78.32;96439.14;1825764;78;21542;-69
2021/11/12 01:30:10;;;;;;;1.80;0.73;;;;;;;-2.32;77.89;96443.48;1826208;78;21041;-70
2021/11/12 01:32:37;;;;;;;1.57;0.90;;;;;;;-2.38;77.93;96449.68;1826043;78;20998;-70
2021/11/12 01:35:05;;;;;;;2.47;0.93;;;;;;;-2.35;78.34;96447.64;1826143;78;20962;-69
2021/11/12 01:37:34;;;;;;;1.83;1.03;;;;;;;-2.38;78.03;96443.22;1826000;78;20998;-69
2021/11/12 01:40:06;;;;;;;1.73;0.80;;;;;;;-2.44;77.89;96449.00;1826132;78;21017;-70
2021/11/12 01:43:21;;;;;;;1.20;0.90;;;;;;;-2.43;78.08;96448.59;1825303;78;21546;-69
2021/11/12 01:48:18;;;;;;;1.97;0.70;;;;;;;-2.31;78.31;96436.63;1826130;78;21006;-70
2021/11/12 01:50:41;;;;;;;1.47;0.70;;;;;;;-2.29;78.14;96438.47;1824348;78;21514;-69
2021/11/12 01:53:10;;;;;;;0.90;0.60;;;;;;;-2.35;77.35;96443.34;1826134;78;21803;-69
2021/11/12 01:58:27;;;;;;;1.50;0.70;;;;;;;-2.66;77.32;96430.77;1825875;78;21134;-69
2021/11/12 02:00:44;;;;;;;1.47;1.07;;;;;;;-2.66;77.83;96440.69;1823653;78;21057;-69
2021/11/12 02:03:11;;;;;;;1.50;0.40;;;;;;;-2.72;78.16;96434.34;1825722;78;20971;-69
2021/11/12 02:05:38;;;;;;;1.73;0.60;;;;;;;-2.70;78.23;96434.89;1826168;78;21472;-70
2021/11/12 02:08:05;;;;;;;2.60;0.70;;;;;;;-2.61;78.51;96429.27;1826408;78;21006;-69
2021/11/12 02:10:32;;;;;;;1.43;0.50;;;;;;;-2.58;78.26;96425.53;1831121;78;21085;-69
2021/11/12 02:13:11;;;;;;;0.80;0.50;;;;;;;-2.66;77.53;96430.35;1831847;78;21018;-70
2021/11/12 02:15:38;;;;;;;0.77;0.60;;;;;;;-2.75;77.36;96430.34;1830816;78;21068;-70
2021/11/12 02:18:16;;;;;;;1.23;0.60;;;;;;;-2.85;77.62;96433.80;1831771;78;20993;-70
2021/11/12 02:21:11;;;;;;;0.87;0.50;;;;;;;-2.77;78.26;96430.28;1831657;78;21049;-70
2021/11/12 02:23:39;;;;;;;0.60;0.50;;;;;;;-2.81;77.63;96428.36;1831053;78;21033;-69
2021/11/12 02:26:09;;;;;;;1.07;0.67;;;;;;;-2.79;78.37;96425.45;1831965;78;21006;-69
2021/11/12 02:28:38;;;;;;;1.63;0.73;;;;;;;-2.72;78.37;96429.17;1831784;78;21460;-69
2021/11/12 02:31:03;;;;;;;1.87;0.60;;;;;;;-2.66;78.02;96425.59;1831082;78;21036;-69
2021/11/12 02:33:33;;;;;;;0.73;0.50;;;;;;;-2.68;77.90;96422.05;1831710;78;21014;-69
2021/11/12 02:36:06;;;;;;;1.70;0.50;;;;;;;-2.74;77.37;96429.54;1831329;78;21050;-69
2021/11/12 02:38:43;;;;;;;2.53;0.57;;;;;;;-2.86;77.35;96430.73;1832117;78;20986;-69
2021/11/12 02:41:11;;;;;;;1.10;0.60;;;;;;;-2.90;77.40;96436.97;1831694;78;20982;-69
2021/11/12 02:43:41;;;;;;;1.10;0.50;;;;;;;-2.89;77.69;96431.01;1832021;78;21328;-69
2021/11/12 02:46:11;;;;;;;0.70;0.40;;;;;;;-2.92;77.78;96429.58;1831589;78;21021;-69
2021/11/12 02:48:40;;;;;;;1.73;0.60;;;;;;;-2.96;77.54;96435.41;1831718;78;21014;-69
2021/11/12 02:51:11;;;;;;;0.77;0.50;;;;;;;-3.03;77.57;96430.77;1800927;78;20998;-69
2021/11/12 02:53:40;;;;;;;1.73;0.87;;;;;;;-3.06;77.96;96436.25;1831783;78;21089;-69
2021/11/12 02:56:13;;;;;;;0.70;0.50;;;;;;;-2.97;78.46;96436.20;1831844;78;21013;-69
2021/11/12 02:58:38;;;;;;;1.70;0.67;;;;;;;-2.87;78.53;96430.67;1831619;78;21013;-69
2021/11/12 03:01:08;;;;;;;2.00;0.90;;;;;;;-2.80;78.20;96417.62;1832022;78;21002;-69
2021/11/12 03:03:37;;;;;;;0.70;0.50;;;;;;;-2.73;78.50;96414.51;1831872;78;21086;-69
2021/11/12 03:06:04;;;;;;;1.40;0.53;;;;;;;-2.65;78.39;96415.73;1831791;78;20998;-69
2021/11/12 03:08:31;;;;;;;2.53;0.90;;;;;;;-2.62;77.91;96418.06;1831815;78;21037;-69
2021/11/12 03:10:58;;;;;;;2.80;0.97;;;;;;;-2.61;77.51;96419.81;1820985;78;21026;-69
2021/11/12 03:13:26;;;;;;;2.80;0.80;;;;;;;-2.61;77.11;96421.11;1825716;78;21002;-69
2021/11/12 03:15:53;;;;;;;1.27;0.80;;;;;;;-2.62;77.34;96419.35;1826030;78;21026;-69
2021/11/12 03:18:21;;;;;;;6.40;0.83;;;;;;;-2.58;77.37;96419.48;1825644;78;21029;-69
2021/11/12 03:20:49;;;;;;;1.60;0.60;;;;;;;-2.62;77.00;96425.81;1825589;79;21002;-69
2021/11/12 03:23:21;;;;;;;0.97;0.50;;;;;;;-2.64;76.87;96410.64;1826173;78;21014;-69
2021/11/12 03:26:02;;;;;;;0.60;0.50;;;;;;;-2.83;76.67;96410.62;1825577;78;21121;-69
2021/11/12 03:56:29;;;;;;;1.13;0.60;;;;;;;-2.99;77.75;96411.62;1825750;78;21017;-69
2021/11/12 05:14:08;;;;;;;0.30;0.30;;;;;;;-2.62;76.62;96399.98;1831668;78;21464;-69
2021/11/12 05:44:04;;;;;;;3.27;1.67;;;;;;;-2.67;77.15;96405.34;1832076;78;20951;-69
2021/11/12 05:46:39;;;;;;;3.37;1.80;;;;;;;-2.60;76.86;96418.11;1829320;78;21038;-69
2021/11/12 05:51:44;;;;;;;3.63;2.33;;;;;;;-2.66;76.68;96415.27;1831771;78;21495;-69
2021/11/12 05:56:56;;;;;;;1.63;0.80;;;;;;;-2.53;76.54;96413.70;1832007;78;20962;-69
2021/11/12 05:59:24;;;;;;;1.50;1.00;;;;;;;-2.54;76.16;96410.66;1831644;78;21009;-69
2021/11/12 06:01:53;;;;;;;1.50;0.67;;;;;;;-2.58;76.23;96410.44;1832097;78;20974;-69
2021/11/12 06:04:21;;;;;;;7.13;1.00;;;;;;;-2.52;76.25;96413.28;1831781;78;21482;-69
2021/11/12 06:06:48;;;;;;;10.40;4.63;;;;;;;-2.55;76.11;96413.16;1832113;78;20994;-69
2021/11/12 06:09:14;;;;;;;4.63;2.40;;;;;;;-2.57;76.06;96416.98;1831948;78;20978;-69
2021/11/12 06:11:42;;;;;;;3.50;1.90;;;;;;;-2.53;76.39;96417.98;1826379;78;21072;-70
2021/11/12 06:14:10;;;;;;;1.67;0.90;;;;;;;-2.49;76.85;96418.20;1825777;78;21574;-69
2021/11/12 06:16:37;;;;;;;1.13;0.63;;;;;;;-2.48;77.37;96413.91;1826115;78;21510;-69
2021/11/12 06:19:04;;;;;;;0.93;0.60;;;;;;;-2.35;77.52;96412.33;1825926;78;20978;-69
2021/11/12 06:21:31;;;;;;;1.33;0.53;;;;;;;-2.18;77.72;96413.95;1826292;78;21049;-69
2021/11/12 06:23:58;;;;;;;1.13;0.70;;;;;;;-2.02;77.29;96413.32;1826047;78;21020;-69
2021/11/12 06:26:24;;;;;;;0.90;0.60;;;;;;;-2.07;76.69;96411.83;1826241;78;20990;-69
2021/11/12 06:28:51;;;;;;;0.73;0.47;;;;;;;-2.07;76.82;96407.95;1825845;78;20978;-69
2021/11/12 06:31:20;;;;;;;0.87;0.60;;;;;;;-2.01;77.13;96409.94;1825951;78;21550;-69
2021/11/12 06:33:49;;;;;;;1.33;0.70;;;;;;;-1.89;77.33;96403.08;1826111;78;20967;-69
2021/11/12 06:36:18;;;;;;;1.30;0.70;;;;;;;-1.72;77.36;96399.92;1825969;78;21049;-69
2021/11/12 06:38:45;;;;;;;8.53;3.67;;;;;;;-1.54;77.08;96398.08;1826235;78;21025;-69
2021/11/12 06:41:15;;;;;;;2.77;0.80;;;;;;;-1.49;76.18;96406.03;1825933;78;21543;-70
2021/11/12 06:49:22;;;;;;;3.87;1.33;;;;;;;-1.48;77.12;96405.23;1825974;78;20970;-69
2021/11/12 06:51:46;;;;;;;2.57;0.80;;;;;;;-1.53;77.24;96398.15;1824884;78;21010;-69
2021/11/12 06:54:13;;;;;;;2.07;1.00;;;;;;;-1.55;77.71;96395.03;1826103;78;21518;-69
2021/11/12 06:56:40;;;;;;;0.40;0.40;;;;;;;-1.46;78.04;96392.82;1825828;78;21018;-69
2021/11/12 06:59:06;;;;;;;2.13;0.80;;;;;;;-1.52;78.59;96392.14;1826080;78;20946;-69
2021/11/12 07:01:33;;;;;;;3.53;1.80;;;;;;;-1.46;78.65;96386.73;1826270;78;20987;-69
2021/11/12 07:04:00;;;;;;;1.70;1.00;;;;;;;-1.40;78.63;96388.30;1826039;78;21042;-69
2021/11/12 07:06:27;;;;;;;2.73;1.30;;;;;;;-1.26;78.92;96380.67;1825943;78;21010;-69
2021/11/12 07:08:54;;;;;;;3.90;2.07;;;;;;;-1.20;78.65;96385.20;1825915;79;20970;-69
2021/11/12 07:11:22;;;;;;;2.67;1.70;;;;;;;-1.17;78.78;96383.60;1825693;78;21061;-69
2021/11/12 07:13:49;;;;;;;6.23;3.13;;;;;;;-1.04;78.77;96379.78;1825789;79;21049;-69
2021/11/12 07:16:16;;;;;;;4.73;2.60;;;;;;;-0.95;78.49;96384.03;1826073;78;21077;-69
2021/11/12 07:18:44;;;;;;;11.37;6.97;;;;;;;-0.92;78.59;96376.78;1825915;78;21006;-69
2021/11/12 07:21:12;;;;;;;9.00;5.00;;;;;;;-0.75;78.59;96377.43;1826299;78;21013;-69
2021/11/12 07:23:39;;;;;;;9.03;4.30;;;;;;;-0.59;78.40;96382.76;1825862;79;21117;-69
2021/11/12 07:26:06;;;;;;;9.93;5.00;;;;;;;-0.46;78.27;96380.66;1826103;78;20979;-69
2021/11/12 07:28:33;;;;;;;7.20;4.17;;;;;;;-0.45;77.87;96374.66;1825799;78;21070;-69
2021/11/12 07:31:01;;;;;;;8.60;4.03;;;;;;;-0.46;77.57;96370.28;1826326;78;20951;-69
2021/11/12 07:33:27;;;;;;;8.37;3.83;;;;;;;-0.42;77.62;96374.31;1825836;78;21044;-69
2021/11/12 07:36:06;;;;;;;9.93;4.50;;;;;;;-0.50;78.31;96372.73;1826152;78;21482;-69
2021/11/12 07:38:44;;;;;;;12.33;6.30;;;;;;;-0.46;78.59;96368.11;1825052;78;21014;-70
2021/11/12 07:41:14;;;;;;;9.03;4.67;;;;;;;-0.38;78.70;96378.34;1823190;78;21058;-69
2021/11/12 07:49:00;;;;;;;13.17;6.83;;;;;;;-0.16;79.52;96363.55;1821851;78;21013;-69
2021/11/12 07:51:28;;;;;;;12.67;6.83;;;;;;;0.02;79.51;96360.71;1825831;78;21006;-69
2021/11/12 07:53:55;;;;;;;17.87;9.63;;;;;;;0.07;79.68;96355.27;1826234;78;21460;-69
2021/11/12 07:56:25;;;;;;;14.27;7.90;;;;;;;0.18;79.62;96351.34;1826343;78;20986;-69
2021/11/12 07:58:52;;;;;;;15.60;8.50;;;;;;;0.32;79.68;96359.14;1825948;78;21066;-69
2021/11/12 08:01:19;;;;;;;17.33;9.97;;;;;;;0.50;79.58;96352.78;1826232;78;21033;-69
2021/11/12 08:03:50;;;;;;;19.57;12.23;;;;;;;0.60;79.32;96346.62;1825825;78;21067;-69
2021/11/12 08:06:17;;;;;;;15.37;9.20;;;;;;;0.76;79.25;96344.55;1826087;78;20994;-69
2021/11/12 08:08:51;;;;;;;18.60;9.70;;;;;;;0.97;79.25;96344.31;1826117;78;20970;-69
2021/11/12 08:11:16;;;;;;;12.87;8.13;;;;;;;1.09;78.96;96343.39;1827290;78;21524;-69
2021/11/12 08:13:55;;;;;;;16.80;9.60;;;;;;;1.27;79.02;96340.45;1831811;78;21002;-69
2021/11/12 08:16:47;;;;;;;12.53;7.40;;;;;;;1.42;78.58;96329.61;1831057;78;21022;-69
2021/11/12 08:19:09;;;;;;;14.63;8.13;;;;;;;1.53;78.16;96335.98;1829949;78;21014;-69
2021/11/12 08:26:45;;;;;;;16.37;8.43;;;;;;;2.09;78.33;96331.45;1832229;78;20990;-70
2021/11/12 08:29:29;;;;;;;13.77;7.53;;;;;;;2.33;78.11;96328.99;1830442;78;21010;-70
2021/11/12 08:32:40;;;;;;;14.73;8.07;;;;;;;2.57;77.85;96327.00;1829608;78;21010;-70
2021/11/12 08:34:37;;;;;;;14.33;8.80;;;;;;;2.69;76.84;96321.60;1806188;78;21464;-70
2021/11/12 08:37:11;;;;;;;16.10;9.70;;;;;;;2.79;76.80;96317.06;1830335;78;21010;-70
2021/11/12 08:42:13;;;;;;;16.10;9.50;;;;;;;2.79;75.23;96307.94;1832047;78;20978;-70
2021/11/12 08:44:52;;;;;;;18.13;10.10;;;;;;;2.77;75.63;96313.53;1831223;78;21053;-68
2021/11/12 08:47:18;;;;;;;18.27;10.20;;;;;;;2.87;76.04;96308.11;1830950;78;20998;-70
2021/11/12 08:49:44;;;;;;;16.67;10.13;;;;;;;2.96;76.03;96304.42;1831449;78;21009;-69
2021/11/12 08:52:15;;;;;;;16.10;9.23;;;;;;;2.97;75.65;96302.26;1831980;78;20989;-67
2021/11/12 08:54:45;;;;;;;16.97;10.73;;;;;;;2.97;75.66;96303.56;1831962;78;20966;-68
2021/11/12 08:57:14;;;;;;;16.57;10.00;;;;;;;3.12;76.10;96296.50;1831880;78;21472;-68
2021/11/12 08:59:45;;;;;;;19.00;10.27;;;;;;;3.31;76.59;96295.17;1831983;78;21013;-68
2021/11/12 09:02:15;;;;;;;16.57;10.33;;;;;;;3.58;76.61;96297.44;1832037;78;21531;-68
2021/11/12 09:04:43;;;;;;;22.33;12.03;;;;;;;3.85;76.94;96290.56;1832088;78;21036;-67
2021/11/12 09:07:11;;;;;;;22.60;13.17;;;;;;;4.07;76.30;96286.19;1831949;78;21084;-69
2021/11/12 09:09:40;;;;;;;20.67;11.60;;;;;;;4.30;75.96;96284.40;1831944;78;21019;-68
2021/11/12 09:12:11;;;;;;;18.63;10.40;;;;;;;4.51;75.25;96276.92;1831888;78;21042;-68
2021/11/12 09:14:43;;;;;;;19.00;10.87;;;;;;;4.68;74.48;96279.77;1832091;78;20986;-68
2021/11/12 09:17:08;;;;;;;21.57;12.23;;;;;;;4.82;73.79;96276.08;1831579;78;21045;-68
2021/11/12 09:19:44;;;;;;;16.93;10.57;;;;;;;5.02;74.28;96276.80;1831869;78;20990;-67
2021/11/12 09:22:05;;;;;;;21.10;12.53;;;;;;;5.15;72.28;96274.35;1830446;78;21033;-68
2021/11/12 09:24:32;;;;;;;17.77;11.33;;;;;;;5.31;73.05;96266.70;1831934;78;21029;-67
2021/11/12 09:26:58;;;;;;;16.77;11.30;;;;;;;5.43;72.56;96264.23;1831836;78;21044;-67
2021/11/12 09:29:25;;;;;;;16.57;10.00;;;;;;;5.56;72.40;96266.13;1832025;78;21002;-67
2021/11/12 09:31:51;;;;;;;18.07;10.97;;;;;;;5.75;70.12;96261.13;1831958;78;20978;-67
2021/11/12 09:34:18;;;;;;;21.50;15.10;;;;;;;5.94;71.69;96259.15;1831892;78;21038;-67
2021/11/12 09:36:45;;;;;;;18.90;12.57;;;;;;;6.10;70.34;96249.72;1832039;78;20978;-67
2021/11/12 09:39:12;;;;;;;12.53;8.43;;;;;;;6.26;70.32;96241.55;1831926;78;21030;-67
2021/11/12 09:41:39;;;;;;;12.77;9.17;;;;;;;6.40;70.30;96241.25;1832127;78;21475;-67
2021/11/12 09:44:07;;;;;;;16.67;9.97;;;;;;;6.54;69.02;96230.84;1832145;78;20950;-67
2021/11/12 09:46:34;;;;;;;18.53;10.67;;;;;;;6.70;68.28;96231.82;1831839;78;20938;-67
2021/11/12 09:49:03;;;;;;;23.43;14.37;;;;;;;6.89;68.35;96227.58;1831901;78;21530;-67
2021/11/12 09:51:31;;;;;;;13.13;9.10;;;;;;;7.29;68.51;96226.04;1831841;78;21515;-67
2021/11/12 09:53:58;;;;;;;17.30;12.00;;;;;;;7.89;65.91;96224.05;1831821;78;21002;-68
2021/11/12 09:56:25;;;;;;;10.13;6.50;;;;;;;8.41;64.43;96221.03;1832038;78;20954;-68
2021/11/12 09:58:51;;;;;;;14.60;9.37;;;;;;;8.90;62.61;96210.91;1831998;78;21002;-69
2021/11/12 10:01:28;;;;;;;25.70;9.77;;;;;;;9.48;62.33;96205.45;1831939;78;21064;-68
2021/11/12 10:03:50;;;;;;;26.00;16.75;;;;;;;10.14;62.73;96204.19;1831033;78;21545;-68
2021/11/12 10:06:27;;;;;;;17.95;8.43;;;;;;;10.81;60.58;96198.37;1831456;78;21013;-68
2021/11/12 10:08:55;;;;;;;11.45;6.67;;;;;;;11.41;58.29;96191.55;1831833;78;21021;-69
2021/11/12 10:11:29;;;;;;;15.15;8.00;;;;;;;11.84;53.96;96181.30;1831825;78;21006;-69
2021/11/12 10:14:02;;;;;;;11.88;6.50;;;;;;;12.26;55.41;96187.31;1831889;78;21531;-69
2021/11/12 10:16:37;;;;;;;23.10;15.60;;;;;;;12.54;52.37;96185.96;1832030;78;21010;-69
2021/11/12 10:19:20;;;;;;;15.32;9.00;;;;;;;13.10;56.22;96175.70;1831912;78;21009;-70
2021/11/12 10:21:52;;;;;;;11.40;5.80;;;;;;;13.89;54.45;96173.23;1830920;78;20982;-70
2021/11/12 10:24:30;;;;;;;11.45;7.17;;;;;;;14.39;51.91;96171.18;1831916;78;20975;-70
2021/11/12 10:27:17;;;;;;;15.30;8.95;;;;;;;14.68;45.13;96166.48;1831009;78;21058;-70
2021/11/12 10:29:48;;;;;;;6.17;4.60;;;;;;;15.16;47.04;96157.25;1831847;78;20990;-70
2021/11/12 10:32:28;;;;;;;7.35;6.40;;;;;;;15.38;40.97;96158.86;1832056;78;20970;-70
2021/11/12 10:35:01;;;;;;;6.85;5.00;;;;;;;15.67;42.51;96150.02;1831620;78;21129;-70
2021/11/12 10:37:30;;;;;;;6.87;4.90;;;;;;;16.12;42.45;96148.70;1832005;78;21038;-70
2021/11/12 10:40:14;;;;;;;6.25;3.47;;;;;;;16.24;41.45;96144.33;1831938;78;20982;-70
2021/11/12 10:42:46;;;;;;;6.75;3.37;;;;;;;16.75;41.83;96147.98;1831810;78;21056;-70
2021/11/12 10:45:29;;;;;;;5.80;5.08;;;;;;;17.27;38.88;96141.72;1832171;78;20989;-70
2021/11/12 10:48:00;;;;;;;6.42;4.20;;;;;;;17.50;40.07;96138.20;1831024;78;21503;-70
2021/11/12 10:50:38;;;;;;;12.00;10.80;;;;;;;17.86;37.87;96128.89;1831808;78;21006;-70
2021/11/12 10:53:14;;;;;;;8.95;4.00;;;;;;;18.38;36.71;96125.49;1831941;78;20977;-70
2021/11/12 10:55:58;;;;;;;4.10;3.20;;;;;;;18.67;34.75;96122.97;1832103;78;21002;-70
2021/11/12 10:58:25;;;;;;;3.87;2.65;;;;;;;18.95;30.18;96122.69;1832146;78;21484;-70
2021/11/12 11:00:51;;;;;;;3.12;2.25;;;;;;;19.16;28.56;96118.67;1832157;78;21002;-70
2021/11/12 11:03:22;;;;;;;4.58;2.30;;;;;;;19.60;32.00;96109.95;1831804;78;21005;-70
2021/11/12 11:05:58;;;;;;;5.17;1.87;;;;;;;19.72;29.49;96108.56;1831309;78;21314;-70
2021/11/12 11:08:32;;;;;;;10.25;3.90;;;;;;;19.83;25.50;96102.70;1831835;78;21124;-71
2021/11/12 11:11:03;;;;;;;4.97;2.92;;;;;;;20.26;25.61;96097.95;1831808;78;21025;-71
2021/11/12 11:13:36;;;;;;;5.62;3.12;;;;;;;20.45;24.82;96093.92;1826425;78;21085;-71
2021/11/12 11:16:20;;;;;;;3.67;3.27;;;;;;;20.67;26.57;96090.59;1826506;78;20986;-71
2021/11/12 11:18:54;;;;;;;3.72;3.20;;;;;;;20.44;26.65;96093.05;1825787;78;21018;-70
2021/11/12 11:24:06;;;;;;;9.20;5.72;;;;;;;20.53;22.57;96085.02;1826348;78;20997;-71
2021/11/12 11:26:46;;;;;;;15.83;8.03;;;;;;;20.23;23.77;96088.25;1826191;78;21026;-71
2021/11/12 11:29:26;;;;;;;6.65;2.62;;;;;;;20.41;23.07;96080.26;1826335;78;20971;-71
2021/11/12 11:31:55;;;;;;;10.58;5.80;;;;;;;20.73;22.99;96074.66;1826293;78;20984;-70
2021/11/12 11:34:23;;;;;;;26.25;6.45;;;;;;;20.92;24.17;96072.77;1826238;78;21503;-70
2021/11/12 11:36:50;;;;;;;12.73;7.53;;;;;;;21.13;22.86;96069.42;1825649;78;21091;-70
2021/11/12 11:39:19;;;;;;;9.68;4.03;;;;;;;21.32;22.16;96069.81;1820173;78;21096;-69
2021/11/12 11:41:47;;;;;;;11.73;3.37;;;;;;;21.47;21.06;96072.15;1825256;78;21025;-69
2021/11/12 11:44:19;;;;;;;4.97;1.80;;;;;;;21.77;22.77;96074.98;1825137;78;21011;-69
2021/11/12 11:46:49;;;;;;;3.55;1.60;;;;;;;21.78;19.77;96069.53;1825104;78;21554;-70
2021/11/12 11:49:20;;;;;;;7.22;5.53;;;;;;;22.22;21.18;96058.59;1825847;78;21069;-70
2021/11/12 11:51:57;;;;;;;6.30;4.78;;;;;;;22.64;20.26;96049.00;1825695;78;21472;-70
2021/11/12 11:54:27;;;;;;;7.47;3.00;;;;;;;22.57;20.00;96048.48;1826433;78;21033;-70
2021/11/12 11:56:59;;;;;;;3.67;2.17;;;;;;;22.49;20.75;96049.91;1826252;78;21014;-70
2021/11/12 11:59:35;;;;;;;3.40;2.05;;;;;;;22.71;21.13;96052.20;1826543;78;20958;-70
2021/11/12 12:02:18;;;;;;;5.87;2.25;;;;;;;23.13;20.17;96044.72;1826380;78;20986;-70
2021/11/12 12:04:50;;;;;;;8.10;3.40;;;;;;;23.60;18.97;96040.91;1826485;78;20990;-71
2021/11/12 12:07:28;;;;;;;4.92;4.17;;;;;;;23.43;19.86;96034.36;1826073;78;21050;-70
2021/11/12 12:10:16;;;;;;;4.58;3.25;;;;;;;23.26;20.83;96031.40;1826284;78;20974;-70
2021/11/12 12:12:47;;;;;;;6.85;3.55;;;;;;;23.29;20.83;96042.83;1826239;78;21089;-70
2021/11/12 12:15:22;;;;;;;7.70;2.80;;;;;;;23.25;19.74;96040.41;1826028;78;20994;-71
2021/11/12 12:18:11;;;;;;;3.27;2.30;;;;;;;22.90;21.64;96040.70;1826231;78;21013;-71
2021/11/12 12:20:57;;;;;;;6.00;2.35;;;;;;;22.59;22.93;96043.03;1826081;78;20955;-70
2021/11/12 12:35:11;;;;;;;5.70;2.50;;;;;;;21.65;27.47;96031.38;1825718;78;21074;-70
2021/11/12 13:20:41;;;;;;;4.45;2.30;;;;;;;18.84;30.92;96039.85;1832331;78;20994;-70
2021/11/12 13:25:41;;;;;;;4.90;3.30;;;;;;;16.87;32.84;96051.17;1832084;78;21006;-70
2021/11/12 13:28:44;;;;;;;14.23;3.90;;;;;;;15.66;36.32;96051.19;1832020;78;20942;-69
2021/11/12 13:31:18;;;;;;;7.20;5.17;;;;;;;14.40;37.49;96063.20;1829312;78;20970;-70
2021/11/12 13:33:49;;;;;;;7.40;4.20;;;;;;;13.08;41.37;96062.25;1831926;78;21014;-68
2021/11/12 13:36:32;;;;;;;3.40;2.47;;;;;;;12.46;39.84;96079.36;1831962;78;20978;-69
2021/11/12 13:39:20;;;;;;;3.37;1.92;;;;;;;11.78;42.18;96078.72;1831966;78;21002;-69
2021/11/12 13:41:48;;;;;;;2.80;2.05;;;;;;;11.02;44.95;96080.22;1830360;78;21034;-69
2021/11/12 13:44:22;;;;;;;5.17;2.35;;;;;;;10.39;47.30;96092.34;1832178;78;21001;-69
2021/11/12 13:46:56;;;;;;;4.90;3.62;;;;;;;9.89;46.71;96087.05;1831649;78;21018;-68
2021/11/12 13:49:43;;;;;;;3.20;2.40;;;;;;;9.49;47.00;96091.73;1832046;78;20982;-67
2021/11/12 13:52:17;;;;;;;4.92;2.30;;;;;;;9.04;50.81;96091.97;1831557;78;21558;-67
2021/11/12 13:55:04;;;;;;;3.27;2.08;;;;;;;8.73;51.06;96095.62;1831922;78;21018;-66
2021/11/12 13:57:31;;;;;;;5.20;2.50;;;;;;;8.52;50.92;96098.75;1831873;78;21062;-67
2021/11/12 14:00:06;;;;;;;4.20;2.40;;;;;;;8.37;50.14;96103.57;1831417;78;21057;-67
2021/11/12 14:02:55;;;;;;;3.70;2.60;;;;;;;8.18;51.25;96100.08;1831937;78;21045;-67
2021/11/12 14:05:23;;;;;;;4.60;2.53;;;;;;;8.02;50.27;96101.86;1831845;78;21467;-67
2021/11/12 14:08:10;;;;;;;4.20;2.73;;;;;;;7.85;50.83;96099.66;1832077;78;21021;-67
2021/11/12 14:10:45;;;;;;;4.13;2.37;;;;;;;7.72;51.72;96107.98;1831970;78;21002;-67
2021/11/12 14:13:16;;;;;;;4.03;2.50;;;;;;;7.60;50.76;96102.72;1827408;78;21019;-67
2021/11/12 14:16:14;;;;;;;4.80;2.90;;;;;;;7.50;51.86;96108.39;1826253;78;20958;-67
2021/11/12 14:21:46;;;;;;;5.80;2.80;;;;;;;7.12;52.25;96110.48;1825812;78;20990;-67
2021/11/12 14:35:16;;;;;;;6.63;3.57;;;;;;;6.43;53.09;96125.92;1825701;78;21002;-67
2021/11/12 14:45:51;;;;;;;4.20;2.70;;;;;;;5.80;56.56;96124.57;1825847;78;21014;-67
2021/11/12 14:48:29;;;;;;;4.20;2.67;;;;;;;5.63;55.35;96124.41;1823427;78;21013;-67
2021/11/12 14:51:08;;;;;;;3.03;2.10;;;;;;;5.45;56.45;96130.36;1826125;78;21473;-67
2021/11/12 14:56:25;;;;;;;4.73;3.00;;;;;;;4.93;58.41;96142.42;1825922;78;21065;-67
2021/11/12 14:59:01;;;;;;;5.40;3.37;;;;;;;4.81;57.42;96143.57;1826199;78;21014;-67
2021/11/12 15:01:29;;;;;;;4.20;2.93;;;;;;;4.58;60.96;96143.28;1825850;78;21070;-68
2021/11/12 15:03:56;;;;;;;4.37;2.73;;;;;;;4.28;60.59;96144.63;1826350;78;20986;-68
2021/11/12 15:06:26;;;;;;;4.43;2.50;;;;;;;4.21;60.07;96144.48;1825756;78;21543;-67
2021/11/12 15:09:21;;;;;;;14.90;3.90;;;;;;;4.16;61.04;96151.37;1825778;78;31032;-68
2021/11/12 15:11:28;;;;;;;6.27;3.13;;;;;;;4.01;60.81;96142.48;1812925;78;21137;-69
2021/11/12 15:14:10;;;;;;;4.87;2.67;;;;;;;3.79;62.20;96149.08;1828987;78;21056;-69
2021/11/12 15:16:35;;;;;;;3.87;2.43;;;;;;;3.62;65.02;96147.48;1830191;78;21584;-69
2021/11/12 15:19:05;;;;;;;5.60;3.50;;;;;;;3.46;64.35;96154.61;1831899;78;21460;-69
2021/11/12 15:21:36;;;;;;;5.03;3.50;;;;;;;3.44;63.53;96164.12;1831755;78;21476;-67
2021/11/12 15:24:08;;;;;;;4.57;3.10;;;;;;;3.33;63.97;96157.42;1831427;78;21021;-69
2021/11/12 15:31:39;;;;;;;4.80;2.80;;;;;;;3.03;66.01;96170.75;1831488;78;21519;-69
2021/11/12 15:34:05;;;;;;;5.57;2.97;;;;;;;2.88;68.56;96176.53;1831246;78;21022;-69
2021/11/12 15:36:33;;;;;;;5.13;3.03;;;;;;;2.68;68.56;96177.42;1831409;78;21041;-68
2021/11/12 15:39:15;;;;;;;4.10;2.70;;;;;;;2.57;69.28;96174.59;1831820;78;21533;-69
2021/11/12 15:44:25;;;;;;;5.53;4.27;;;;;;;2.62;68.66;96186.42;1831664;78;21009;-71
2021/11/12 15:46:50;;;;;;;6.70;4.63;;;;;;;2.64;67.15;96189.05;1830023;78;21053;-69
2021/11/12 15:49:21;;;;;;;6.57;4.27;;;;;;;2.72;66.36;96190.08;1831812;78;21572;-69
2021/11/12 15:51:57;;;;;;;10.20;4.70;;;;;;;2.77;65.52;96183.23;1831509;78;20998;-69
2021/11/12 15:57:03;;;;;;;6.70;4.03;;;;;;;2.79;68.86;96188.94;1831532;78;21017;-69
2021/11/12 16:07:45;;;;;;;6.20;4.20;;;;;;;2.44;68.60;96197.72;1832008;78;20986;-71
2021/11/12 16:10:27;;;;;;;;;;;;;;;2.38;67.69;96198.47;1831752;78;21078;-71
2021/11/12 16:23:03;;;;;;;11.13;7.67;;;;;;;2.10;70.54;96196.53;1826196;78;21516;-71
2021/11/12 16:25:22;;;;;;;7.67;4.60;;;;;;;1.96;70.38;96200.52;1821269;78;21033;-71
2021/11/12 16:27:49;;;;;;;6.90;4.73;;;;;;;1.89;70.71;96198.20;1825049;78;21018;-71
2021/11/12 16:30:19;;;;;;;6.73;3.27;;;;;;;1.93;70.54;96203.05;1826356;78;21018;-71
2021/11/12 16:32:53;;;;;;;7.87;4.27;;;;;;;1.91;72.13;96208.20;1826374;78;21029;-71
2021/11/12 16:35:22;;;;;;;6.97;4.50;;;;;;;1.94;70.67;96213.51;1825879;78;21001;-71
2021/11/12 16:37:52;;;;;;;12.90;4.83;;;;;;;2.01;69.90;96208.01;1826146;78;21021;-71
2021/11/12 16:40:41;;;;;;;7.37;4.40;;;;;;;2.03;70.22;96207.63;1825963;78;20986;-71
2021/11/12 16:43:01;;;;;;;8.47;4.60;;;;;;;2.01;69.81;96214.94;1816677;78;21441;-71
2021/11/12 16:45:33;;;;;;;7.60;4.27;;;;;;;2.02;69.25;96208.48;1824419;78;21010;-71
2021/11/12 16:50:43;;;;;;;5.53;3.77;;;;;;;2.01;70.21;96211.04;1825896;78;21014;-72
2021/11/12 16:53:10;;;;;;;7.17;3.87;;;;;;;1.94;71.38;96214.81;1824378;78;21003;-71